sensor_id;sensor_type;location;lat;lon;timestamp;pressure;altitude;pressure_sealevel;temperature;humidity
23867;BME280;12114;53.404;-1.502;2024-01-15T00:00:40;100171.56;;;1.51;100.00
23867;BME280;12114;53.404;-1.502;2024-01-15T00:03:24;100178.06;;;1.55;100.00
23867;BME280;12114;53.404;-1.502;2024-01-15T00:06:08;100168.72;;;1.56;100.00
23867;BME280;12114;53.404;-1.502;2024-01-15T00:08:52;100174.72;;;1.58;100.00
23867;BME280;12114;53.404;-1.502;2024-01-15T00:11:37;100170.56;;;1.60;100.00
23867;BME280;12114;53.404;-1.502;2024-01-15T00:14:22;100176.53;;;1.62;100.00
23867;BME280;12114;53.404;-1.502;2024-01-15T00:17:06;100171.88;;;1.63;100.00
23867;BME280;12114;53.404;-1.502;2024-01-15T00:19:50;100167.81;;;1.60;100.00
23867;BME280;12114;53.404;-1.502;2024-01-15T00:22:34;100170.56;;;1.60;100.00
23867;BME280;12114;53.404;-1.502;2024-01-15T00:25:19;100164.66;;;1.53;100.00
23867;BME280;12114;53.404;-1.502;2024-01-15T00:28:04;100163.75;;;1.44;100.00
23867;BME280;12114;53.404;-1.502;2024-01-15T00:30:48;100156.03;;;1.46;100.00
23867;BME280;12114;53.404;-1.502;2024-01-15T00:33:32;100152.81;;;1.44;100.00
23867;BME280;12114;53.404;-1.502;2024-01-15T00:36:16;100149.78;;;1.46;100.00
23867;BME280;12114;53.404;-1.502;2024-01-15T00:39:00;100143.41;;;1.37;100.00
23867;BME280;12114;53.404;-1.502;2024-01-15T00:41:44;100140.34;;;1.38;100.00
23867;BME280;12114;53.404;-1.502;2024-01-15T00:44:28;100136.19;;;1.41;100.00
23867;BME280;12114;53.404;-1.502;2024-01-15T00:47:12;100131.31;;;1.38;100.00
23867;BME280;12114;53.404;-1.502;2024-01-15T00:49:56;100132.44;;;1.50;100.00
23867;BME280;12114;53.404;-1.502;2024-01-15T00:52:40;100130.31;;;1.47;100.00
23867;BME280;12114;53.404;-1.502;2024-01-15T00:55:24;100123.94;;;1.52;100.00
23867;BME280;12114;53.404;-1.502;2024-01-15T00:58:08;100128.66;;;1.60;100.00
23867;BME280;12114;53.404;-1.502;2024-01-15T01:00:52;100131.69;;;1.58;100.00
23867;BME280;12114;53.404;-1.502;2024-01-15T01:03:37;100124.41;;;1.54;100.00
23867;BME280;12114;53.404;-1.502;2024-01-15T01:06:20;100133.44;;;1.41;100.00
23867;BME280;12114;53.404;-1.502;2024-01-15T01:09:04;100134.88;;;1.52;100.00
23867;BME280;12114;53.404;-1.502;2024-01-15T01:11:49;100126.97;;;1.50;100.00
23867;BME280;12114;53.404;-1.502;2024-01-15T01:14:33;100131.81;;;1.53;100.00
23867;BME280;12114;53.404;-1.502;2024-01-15T01:17:16;100144.59;;;1.58;100.00
23867;BME280;12114;53.404;-1.502;2024-01-15T01:20:01;100141.47;;;1.51;100.00
23867;BME280;12114;53.404;-1.502;2024-01-15T01:22:48;100145.72;;;1.57;100.00
23867;BME280;12114;53.404;-1.502;2024-01-15T01:25:32;100140.53;;;1.55;100.00
23867;BME280;12114;53.404;-1.502;2024-01-15T01:28:16;100136.38;;;1.58;100.00
23867;BME280;12114;53.404;-1.502;2024-01-15T01:31:00;100138.59;;;1.56;100.00
23867;BME280;12114;53.404;-1.502;2024-01-15T01:33:44;100127.97;;;1.54;100.00
23867;BME280;12114;53.404;-1.502;2024-01-15T01:36:28;100130.22;;;1.39;100.00
23867;BME280;12114;53.404;-1.502;2024-01-15T01:39:15;100133.38;;;1.46;100.00
23867;BME280;12114;53.404;-1.502;2024-01-15T01:41:59;100126.25;;;1.45;100.00
23867;BME280;12114;53.404;-1.502;2024-01-15T01:44:43;100122.78;;;1.53;100.00
23867;BME280;12114;53.404;-1.502;2024-01-15T01:47:27;100130.00;;;1.35;100.00
23867;BME280;12114;53.404;-1.502;2024-01-15T01:50:12;100126.88;;;1.28;100.00
23867;BME280;12114;53.404;-1.502;2024-01-15T01:52:58;100128.59;;;1.24;100.00
23867;BME280;12114;53.404;-1.502;2024-01-15T01:55:43;100123.63;;;1.26;100.00
23867;BME280;12114;53.404;-1.502;2024-01-15T01:58:27;100127.25;;;1.22;100.00
23867;BME280;12114;53.404;-1.502;2024-01-15T02:01:12;100124.25;;;1.23;100.00
23867;BME280;12114;53.404;-1.502;2024-01-15T02:03:57;100113.59;;;1.22;100.00
23867;BME280;12114;53.404;-1.502;2024-01-15T02:06:41;100109.13;;;1.26;100.00
23867;BME280;12114;53.404;-1.502;2024-01-15T02:09:25;100119.06;;;1.22;100.00
23867;BME280;12114;53.404;-1.502;2024-01-15T02:12:09;100109.03;;;1.17;100.00
23867;BME280;12114;53.404;-1.502;2024-01-15T02:14:53;100110.38;;;1.06;100.00
23867;BME280;12114;53.404;-1.502;2024-01-15T02:20:41;100124.75;;;1.12;100.00
23867;BME280;12114;53.404;-1.502;2024-01-15T02:23:25;100120.19;;;1.07;100.00
23867;BME280;12114;53.404;-1.502;2024-01-15T02:26:09;100116.75;;;1.01;100.00
23867;BME280;12114;53.404;-1.502;2024-01-15T02:28:53;100119.47;;;1.01;100.00
23867;BME280;12114;53.404;-1.502;2024-01-15T02:31:37;100120.19;;;0.93;100.00
23867;BME280;12114;53.404;-1.502;2024-01-15T02:34:24;100116.75;;;1.01;100.00
23867;BME280;12114;53.404;-1.502;2024-01-15T02:37:08;100119.75;;;0.86;100.00
23867;BME280;12114;53.404;-1.502;2024-01-15T02:39:52;100110.78;;;0.99;100.00
23867;BME280;12114;53.404;-1.502;2024-01-15T02:42:36;100112.91;;;1.02;100.00
23867;BME280;12114;53.404;-1.502;2024-01-15T02:45:21;100107.22;;;0.99;100.00
23867;BME280;12114;53.404;-1.502;2024-01-15T02:48:06;100100.84;;;0.90;100.00
23867;BME280;12114;53.404;-1.502;2024-01-15T02:50:50;100103.25;;;0.91;100.00
23867;BME280;12114;53.404;-1.502;2024-01-15T02:53:36;100100.22;;;1.06;100.00
23867;BME280;12114;53.404;-1.502;2024-01-15T02:56:20;100083.63;;;1.03;100.00
23867;BME280;12114;53.404;-1.502;2024-01-15T02:59:04;100093.25;;;1.14;100.00
23867;BME280;12114;53.404;-1.502;2024-01-15T03:01:48;100101.34;;;1.19;100.00
23867;BME280;12114;53.404;-1.502;2024-01-15T03:04:32;100085.84;;;1.15;100.00
23867;BME280;12114;53.404;-1.502;2024-01-15T03:07:16;100092.63;;;1.17;100.00
23867;BME280;12114;53.404;-1.502;2024-01-15T03:10:01;100084.81;;;1.10;100.00
23867;BME280;12114;53.404;-1.502;2024-01-15T03:12:45;100079.34;;;1.10;100.00
23867;BME280;12114;53.404;-1.502;2024-01-15T03:15:29;100075.09;;;1.04;100.00
23867;BME280;12114;53.404;-1.502;2024-01-15T03:18:13;100068.22;;;1.07;100.00
23867;BME280;12114;53.404;-1.502;2024-01-15T03:20:57;100081.69;;;1.03;100.00
23867;BME280;12114;53.404;-1.502;2024-01-15T03:23:41;100077.13;;;1.13;100.00
23867;BME280;12114;53.404;-1.502;2024-01-15T03:26:25;100081.97;;;1.16;100.00
23867;BME280;12114;53.404;-1.502;2024-01-15T03:29:09;100076.72;;;1.19;100.00
23867;BME280;12114;53.404;-1.502;2024-01-15T03:31:53;100072.06;;;1.06;100.00
23867;BME280;12114;53.404;-1.502;2024-01-15T03:34:38;100071.66;;;0.99;100.00
23867;BME280;12114;53.404;-1.502;2024-01-15T03:37:22;100077.44;;;1.11;100.00
23867;BME280;12114;53.404;-1.502;2024-01-15T03:40:06;100060.09;;;1.16;100.00
23867;BME280;12114;53.404;-1.502;2024-01-15T03:42:51;100063.63;;;1.16;100.00
23867;BME280;12114;53.404;-1.502;2024-01-15T03:45:35;100059.47;;;1.19;100.00
23867;BME280;12114;53.404;-1.502;2024-01-15T03:48:19;100063.72;;;1.25;100.00
23867;BME280;12114;53.404;-1.502;2024-01-15T03:51:03;100059.41;;;1.24;100.00
23867;BME280;12114;53.404;-1.502;2024-01-15T03:53:47;100053.81;;;1.29;100.00
23867;BME280;12114;53.404;-1.502;2024-01-15T03:56:31;100049.25;;;1.24;100.00
23867;BME280;12114;53.404;-1.502;2024-01-15T03:59:15;100061.19;;;1.28;100.00
23867;BME280;12114;53.404;-1.502;2024-01-15T04:01:59;100064.75;;;1.29;100.00
23867;BME280;12114;53.404;-1.502;2024-01-15T04:04:43;100068.50;;;1.19;100.00
23867;BME280;12114;53.404;-1.502;2024-01-15T04:07:27;100064.75;;;1.29;100.00
23867;BME280;12114;53.404;-1.502;2024-01-15T04:10:11;100059.59;;;1.27;100.00
23867;BME280;12114;53.404;-1.502;2024-01-15T04:12:58;100064.78;;;1.15;100.00
23867;BME280;12114;53.404;-1.502;2024-01-15T04:15:43;100061.72;;;1.17;100.00
23867;BME280;12114;53.404;-1.502;2024-01-15T04:18:28;100065.47;;;1.07;100.00
23867;BME280;12114;53.404;-1.502;2024-01-15T04:21:12;100055.06;;;1.09;100.00
23867;BME280;12114;53.404;-1.502;2024-01-15T04:23:56;100054.03;;;1.05;100.00
23867;BME280;12114;53.404;-1.502;2024-01-15T04:26:40;100047.94;;;0.94;100.00
23867;BME280;12114;53.404;-1.502;2024-01-15T04:29:24;100052.44;;;0.90;100.00
23867;BME280;12114;53.404;-1.502;2024-01-15T04:32:08;100042.09;;;0.87;100.00
23867;BME280;12114;53.404;-1.502;2024-01-15T04:34:52;100047.38;;;0.84;100.00
23867;BME280;12114;53.404;-1.502;2024-01-15T04:37:36;100044.03;;;0.87;100.00
23867;BME280;12114;53.404;-1.502;2024-01-15T04:40:23;100040.06;;;0.79;100.00
23867;BME280;12114;53.404;-1.502;2024-01-15T04:43:07;100041.88;;;0.70;100.00
23867;BME280;12114;53.404;-1.502;2024-01-15T04:45:51;100043.22;;;0.73;100.00
23867;BME280;12114;53.404;-1.502;2024-01-15T04:48:35;100047.88;;;0.72;100.00
23867;BME280;12114;53.404;-1.502;2024-01-15T04:51:19;100046.63;;;0.65;100.00
23867;BME280;12114;53.404;-1.502;2024-01-15T04:54:03;100048.75;;;0.68;100.00
23867;BME280;12114;53.404;-1.502;2024-01-15T04:56:47;100039.56;;;0.64;100.00
23867;BME280;12114;53.404;-1.502;2024-01-15T04:59:31;100046.44;;;0.61;100.00
23867;BME280;12114;53.404;-1.502;2024-01-15T05:02:15;100037.84;;;0.54;100.00
23867;BME280;12114;53.404;-1.502;2024-01-15T05:04:59;100027.41;;;0.56;100.00
23867;BME280;12114;53.404;-1.502;2024-01-15T05:07:43;100031.97;;;0.61;100.00
23867;BME280;12114;53.404;-1.502;2024-01-15T05:10:27;100042.59;;;0.62;100.00
23867;BME280;12114;53.404;-1.502;2024-01-15T05:13:12;100044.00;;;0.73;100.00
23867;BME280;12114;53.404;-1.502;2024-01-15T05:15:59;100050.31;;;0.87;100.00
23867;BME280;12114;53.404;-1.502;2024-01-15T05:18:43;100051.63;;;0.90;100.00
23867;BME280;12114;53.404;-1.502;2024-01-15T05:21:29;100031.78;;;0.84;100.00
23867;BME280;12114;53.404;-1.502;2024-01-15T05:24:13;100036.00;;;1.04;100.00
23867;BME280;12114;53.404;-1.502;2024-01-15T05:26:57;100043.22;;;1.00;100.00
23867;BME280;12114;53.404;-1.502;2024-01-15T05:29:41;100040.44;;;1.14;100.00
23867;BME280;12114;53.404;-1.502;2024-01-15T05:32:28;100037.31;;;1.20;100.00
23867;BME280;12114;53.404;-1.502;2024-01-15T05:35:12;100051.38;;;1.14;100.00
23867;BME280;12114;53.404;-1.502;2024-01-15T05:37:56;100056.88;;;1.14;100.00
23867;BME280;12114;53.404;-1.502;2024-01-15T05:40:40;100051.38;;;1.14;100.00
23867;BME280;12114;53.404;-1.502;2024-01-15T05:43:24;100047.56;;;1.15;100.00
23867;BME280;12114;53.404;-1.502;2024-01-15T05:46:08;100058.91;;;1.08;100.00
23867;BME280;12114;53.404;-1.502;2024-01-15T05:48:51;100064.16;;;1.04;100.00
23867;BME280;12114;53.404;-1.502;2024-01-15T05:51:35;100060.41;;;1.00;100.00
23867;BME280;12114;53.404;-1.502;2024-01-15T05:54:20;100067.09;;;0.94;100.00
23867;BME280;12114;53.404;-1.502;2024-01-15T05:57:04;100063.56;;;0.94;100.00
23867;BME280;12114;53.404;-1.502;2024-01-15T05:59:48;100064.88;;;0.96;100.00
23867;BME280;12114;53.404;-1.502;2024-01-15T06:02:32;100063.13;;;1.00;100.00
23867;BME280;12114;53.404;-1.502;2024-01-15T06:05:15;100067.22;;;1.03;100.00
23867;BME280;12114;53.404;-1.502;2024-01-15T06:07:59;100074.19;;;1.09;100.00
23867;BME280;12114;53.404;-1.502;2024-01-15T06:10:44;100070.34;;;1.10;100.00
23867;BME280;12114;53.404;-1.502;2024-01-15T06:13:28;100064.28;;;0.99;100.00
23867;BME280;12114;53.404;-1.502;2024-01-15T06:16:16;100066.47;;;0.97;100.00
23867;BME280;12114;53.404;-1.502;2024-01-15T06:19:00;100078.25;;;0.98;100.00
23867;BME280;12114;53.404;-1.502;2024-01-15T06:21:44;100069.75;;;0.99;100.00
23867;BME280;12114;53.404;-1.502;2024-01-15T06:24:29;100076.22;;;1.03;100.00
23867;BME280;12114;53.404;-1.502;2024-01-15T06:27:12;100066.41;;;1.02;100.00
23867;BME280;12114;53.404;-1.502;2024-01-15T06:29:56;100072.69;;;1.03;100.00
23867;BME280;12114;53.404;-1.502;2024-01-15T06:32:40;100089.09;;;1.03;100.00
23867;BME280;12114;53.404;-1.502;2024-01-15T06:35:24;100094.25;;;1.04;100.00
23867;BME280;12114;53.404;-1.502;2024-01-15T06:38:08;100091.91;;;0.98;100.00
23867;BME280;12114;53.404;-1.502;2024-01-15T06:40:52;100096.28;;;0.99;100.00
23867;BME280;12114;53.404;-1.502;2024-01-15T06:43:36;100101.84;;;0.94;100.00
23867;BME280;12114;53.404;-1.502;2024-01-15T06:46:23;100099.53;;;0.87;100.00
23867;BME280;12114;53.404;-1.502;2024-01-15T06:49:07;100102.97;;;0.93;100.00
23867;BME280;12114;53.404;-1.502;2024-01-15T06:51:51;100107.34;;;0.94;100.00
23867;BME280;12114;53.404;-1.502;2024-01-15T06:54:36;100106.72;;;0.97;100.00
23867;BME280;12114;53.404;-1.502;2024-01-15T06:57:21;100096.69;;;0.92;100.00
23867;BME280;12114;53.404;-1.502;2024-01-15T07:00:05;100097.69;;;0.96;100.00
23867;BME280;12114;53.404;-1.502;2024-01-15T07:02:52;100098.91;;;0.90;100.00
23867;BME280;12114;53.404;-1.502;2024-01-15T07:05:36;100093.34;;;0.95;100.00
23867;BME280;12114;53.404;-1.502;2024-01-15T07:08:21;100098.09;;;0.90;100.00
23867;BME280;12114;53.404;-1.502;2024-01-15T07:11:06;100104.47;;;0.99;100.00
23867;BME280;12114;53.404;-1.502;2024-01-15T07:13:50;100107.63;;;0.92;100.00
23867;BME280;12114;53.404;-1.502;2024-01-15T07:16:34;100127.88;;;0.91;100.00
23867;BME280;12114;53.404;-1.502;2024-01-15T07:19:18;100123.00;;;0.88;100.00
23867;BME280;12114;53.404;-1.502;2024-01-15T07:22:02;100131.72;;;0.90;100.00
23867;BME280;12114;53.404;-1.502;2024-01-15T07:24:46;100133.53;;;0.81;100.00
23867;BME280;12114;53.404;-1.502;2024-01-15T07:27:31;100137.59;;;0.84;100.00
23867;BME280;12114;53.404;-1.502;2024-01-15T07:30:15;100138.78;;;0.78;100.00
23867;BME280;12114;53.404;-1.502;2024-01-15T07:33:00;100128.75;;;0.73;100.00
23867;BME280;12114;53.404;-1.502;2024-01-15T07:35:44;100141.41;;;0.69;100.00
23867;BME280;12114;53.404;-1.502;2024-01-15T07:38:28;100140.47;;;0.60;100.00
23867;BME280;12114;53.404;-1.502;2024-01-15T07:41:13;100152.34;;;0.69;100.00
23867;BME280;12114;53.404;-1.502;2024-01-15T07:43:57;100151.09;;;0.62;100.00
23867;BME280;12114;53.404;-1.502;2024-01-15T07:46:45;100158.81;;;0.73;100.00
23867;BME280;12114;53.404;-1.502;2024-01-15T07:49:29;100159.63;;;0.60;100.00
23867;BME280;12114;53.404;-1.502;2024-01-15T07:52:13;100163.66;;;0.63;100.00
23867;BME280;12114;53.404;-1.502;2024-01-15T07:54:57;100160.50;;;0.55;100.00
23867;BME280;12114;53.404;-1.502;2024-01-15T07:57:43;100166.09;;;0.64;100.00
23867;BME280;12114;53.404;-1.502;2024-01-15T08:00:27;100168.09;;;0.59;100.00
23867;BME280;12114;53.404;-1.502;2024-01-15T08:03:12;100171.97;;;0.58;100.00
23867;BME280;12114;53.404;-1.502;2024-01-15T08:05:59;100165.00;;;0.65;100.00
23867;BME280;12114;53.404;-1.502;2024-01-15T08:08:44;100156.78;;;0.65;100.00
23867;BME280;12114;53.404;-1.502;2024-01-15T08:11:28;100150.59;;;0.60;100.00
23867;BME280;12114;53.404;-1.502;2024-01-15T08:14:12;100158.91;;;0.54;100.00
23867;BME280;12114;53.404;-1.502;2024-01-15T08:16:57;100161.75;;;0.63;100.00
23867;BME280;12114;53.404;-1.502;2024-01-15T08:19:42;100163.75;;;0.58;100.00
23867;BME280;12114;53.404;-1.502;2024-01-15T08:22:26;100176.03;;;0.60;100.00
23867;BME280;12114;53.404;-1.502;2024-01-15T08:25:10;100175.19;;;0.60;100.00
23867;BME280;12114;53.404;-1.502;2024-01-15T08:27:56;100182.81;;;0.63;100.00
23867;BME280;12114;53.404;-1.502;2024-01-15T08:30:40;100184.56;;;0.72;100.00
23867;BME280;12114;53.404;-1.502;2024-01-15T08:33:24;100182.69;;;0.54;100.00
23867;BME280;12114;53.404;-1.502;2024-01-15T08:36:09;100200.91;;;0.59;100.00
23867;BME280;12114;53.404;-1.502;2024-01-15T08:38:53;100219.16;;;0.63;100.00
23867;BME280;12114;53.404;-1.502;2024-01-15T08:41:38;100220.59;;;0.74;100.00
23867;BME280;12114;53.404;-1.502;2024-01-15T08:44:22;100221.78;;;0.68;100.00
23867;BME280;12114;53.404;-1.502;2024-01-15T08:47:07;100223.94;;;0.71;100.00
23867;BME280;12114;53.404;-1.502;2024-01-15T08:49:51;100227.75;;;0.70;100.00
23867;BME280;12114;53.404;-1.502;2024-01-15T08:52:35;100223.06;;;0.76;100.00
23867;BME280;12114;53.404;-1.502;2024-01-15T08:55:19;100230.78;;;0.87;100.00
23867;BME280;12114;53.404;-1.502;2024-01-15T08:58:06;100232.69;;;0.87;100.00
23867;BME280;12114;53.404;-1.502;2024-01-15T09:00:50;100238.97;;;0.87;100.00
23867;BME280;12114;53.404;-1.502;2024-01-15T09:03:34;100239.19;;;0.91;100.00
23867;BME280;12114;53.404;-1.502;2024-01-15T09:06:18;100242.34;;;0.98;100.00
23867;BME280;12114;53.404;-1.502;2024-01-15T09:09:02;100247.31;;;0.96;100.00
23867;BME280;12114;53.404;-1.502;2024-01-15T09:11:46;100235.03;;;0.93;100.00
23867;BME280;12114;53.404;-1.502;2024-01-15T09:17:12;100247.75;;;1.03;100.00
23867;BME280;12114;53.404;-1.502;2024-01-15T09:19:56;100248.34;;;1.14;100.00
23867;BME280;12114;53.404;-1.502;2024-01-15T09:22:40;100252.72;;;1.15;100.00
23867;BME280;12114;53.404;-1.502;2024-01-15T09:25:26;100239.25;;;1.18;100.00
23867;BME280;12114;53.404;-1.502;2024-01-15T09:28:09;100246.13;;;1.16;100.00
23867;BME280;12114;53.404;-1.502;2024-01-15T09:30:54;100235.19;;;1.16;100.00
23867;BME280;12114;53.404;-1.502;2024-01-15T09:33:38;100241.47;;;1.16;100.00
23867;BME280;12114;53.404;-1.502;2024-01-15T09:36:22;100237.03;;;1.20;100.00
23867;BME280;12114;53.404;-1.502;2024-01-15T09:39:06;100231.97;;;1.27;100.00
23867;BME280;12114;53.404;-1.502;2024-01-15T09:41:53;100239.78;;;1.34;100.00
23867;BME280;12114;53.404;-1.502;2024-01-15T09:44:37;100233.19;;;1.35;100.00
23867;BME280;12114;53.404;-1.502;2024-01-15T09:47:22;100245.25;;;1.34;100.00
23867;BME280;12114;53.404;-1.502;2024-01-15T09:50:06;100248.00;;;1.34;100.00
23867;BME280;12114;53.404;-1.502;2024-01-15T09:52:51;100252.34;;;1.35;100.00
23867;BME280;12114;53.404;-1.502;2024-01-15T09:55:39;100252.88;;;1.37;100.00
23867;BME280;12114;53.404;-1.502;2024-01-15T09:58:24;100258.75;;;1.44;100.00
23867;BME280;12114;53.404;-1.502;2024-01-15T10:01:09;100257.53;;;1.50;100.00
23867;BME280;12114;53.404;-1.502;2024-01-15T10:03:54;100272.53;;;1.52;100.00
23867;BME280;12114;53.404;-1.502;2024-01-15T10:06:40;100279.34;;;1.55;100.00
23867;BME280;12114;53.404;-1.502;2024-01-15T10:09:29;100264.63;;;1.51;100.00
23867;BME280;12114;53.404;-1.502;2024-01-15T10:12:14;100272.25;;;1.54;100.00
23867;BME280;12114;53.404;-1.502;2024-01-15T10:14:59;100268.09;;;1.56;100.00
23867;BME280;12114;53.404;-1.502;2024-01-15T10:17:43;100261.09;;;1.64;100.00
23867;BME280;12114;53.404;-1.502;2024-01-15T10:20:27;100274.59;;;1.60;100.00
23867;BME280;12114;53.404;-1.502;2024-01-15T10:23:11;100272.56;;;1.66;100.00
23867;BME280;12114;53.404;-1.502;2024-01-15T10:25:56;100276.50;;;1.74;100.00
23867;BME280;12114;53.404;-1.502;2024-01-15T10:28:41;100291.41;;;1.67;100.00
23867;BME280;12114;53.404;-1.502;2024-01-15T10:31:29;100288.56;;;1.59;100.00
23867;BME280;12114;53.404;-1.502;2024-01-15T10:34:14;100285.53;;;1.74;100.00
23867;BME280;12114;53.404;-1.502;2024-01-15T10:37:00;100274.06;;;1.86;100.00
23867;BME280;12114;53.404;-1.502;2024-01-15T10:39:46;100293.66;;;1.79;100.00
23867;BME280;12114;53.404;-1.502;2024-01-15T10:42:31;100296.41;;;1.79;100.00
23867;BME280;12114;53.404;-1.502;2024-01-15T10:45:15;100290.81;;;1.84;100.00
23867;BME280;12114;53.404;-1.502;2024-01-15T10:47:58;100297.94;;;1.85;100.00
23867;BME280;12114;53.404;-1.502;2024-01-15T10:50:45;100288.56;;;1.86;100.00
23867;BME280;12114;53.404;-1.502;2024-01-15T10:53:29;100301.16;;;1.87;100.00
23867;BME280;12114;53.404;-1.502;2024-01-15T10:56:16;100288.56;;;1.86;100.00
23867;BME280;12114;53.404;-1.502;2024-01-15T10:59:02;100297.50;;;1.92;100.00
23867;BME280;12114;53.404;-1.502;2024-01-15T11:01:48;100302.78;;;1.88;100.00
23867;BME280;12114;53.404;-1.502;2024-01-15T11:04:32;100309.78;;;1.94;100.00
23867;BME280;12114;53.404;-1.502;2024-01-15T11:07:17;100304.22;;;1.99;100.00
23867;BME280;12114;53.404;-1.502;2024-01-15T11:10:05;100320.53;;;2.04;100.00
23867;BME280;12114;53.404;-1.502;2024-01-15T11:12:50;100308.88;;;1.99;100.00
23867;BME280;12114;53.404;-1.502;2024-01-15T11:19:01;100316.97;;;2.17;100.00
23867;BME280;12114;53.404;-1.502;2024-01-15T11:21:45;100313.81;;;2.10;100.00
23867;BME280;12114;53.404;-1.502;2024-01-15T11:24:37;100306.63;;;2.14;100.00
23867;BME280;12114;53.404;-1.502;2024-01-15T11:30:27;100307.03;;;2.22;100.00
23867;BME280;12114;53.404;-1.502;2024-01-15T11:33:32;100296.16;;;2.30;100.00
23867;BME280;12114;53.404;-1.502;2024-01-15T11:36:17;100303.88;;;2.14;100.00
23867;BME280;12114;53.404;-1.502;2024-01-15T11:42:11;100308.84;;;2.26;100.00
23867;BME280;12114;53.404;-1.502;2024-01-15T11:44:56;100308.56;;;2.28;100.00
23867;BME280;12114;53.404;-1.502;2024-01-15T11:50:57;100309.53;;;2.32;100.00
23867;BME280;12114;53.404;-1.502;2024-01-15T11:53:45;100311.66;;;2.35;100.00
23867;BME280;12114;53.404;-1.502;2024-01-15T11:56:31;100309.25;;;2.33;100.00
23867;BME280;12114;53.404;-1.502;2024-01-15T11:59:15;100312.00;;;2.33;100.00
23867;BME280;12114;53.404;-1.502;2024-01-15T12:01:59;100316.16;;;2.31;100.00
23867;BME280;12114;53.404;-1.502;2024-01-15T12:04:44;100322.25;;;2.28;100.00
23867;BME280;12114;53.404;-1.502;2024-01-15T12:07:28;100319.69;;;2.31;100.00
23867;BME280;12114;53.404;-1.502;2024-01-15T12:10:16;100312.59;;;2.30;100.00
23867;BME280;12114;53.404;-1.502;2024-01-15T12:15:50;100309.13;;;2.38;100.00
23867;BME280;12114;53.404;-1.502;2024-01-15T12:18:34;100312.69;;;2.39;100.00
23867;BME280;12114;53.404;-1.502;2024-01-15T12:21:18;100311.16;;;2.33;100.00
23867;BME280;12114;53.404;-1.502;2024-01-15T12:24:03;100312.06;;;2.42;100.00
23867;BME280;12114;53.404;-1.502;2024-01-15T12:26:48;100311.06;;;2.38;100.00
23867;BME280;12114;53.404;-1.502;2024-01-15T12:29:32;100303.97;;;2.37;100.00
23867;BME280;12114;53.404;-1.502;2024-01-15T12:32:15;100307.00;;;2.49;100.00
23867;BME280;12114;53.404;-1.502;2024-01-15T12:35:00;100312.22;;;2.59;100.00
23867;BME280;12114;53.404;-1.502;2024-01-15T12:37:44;100312.22;;;2.59;100.00
23867;BME280;12114;53.404;-1.502;2024-01-15T12:40:32;100294.06;;;2.49;100.00
23867;BME280;12114;53.404;-1.502;2024-01-15T12:43:17;100301.38;;;2.54;100.00
23867;BME280;12114;53.404;-1.502;2024-01-15T12:46:02;100296.81;;;2.49;100.00
23867;BME280;12114;53.404;-1.502;2024-01-15T12:48:47;100298.84;;;2.57;100.00
23867;BME280;12114;53.404;-1.502;2024-01-15T12:51:34;100296.59;;;2.59;100.00
23867;BME280;12114;53.404;-1.502;2024-01-15T12:54:18;100306.25;;;2.57;100.00
23867;BME280;12114;53.404;-1.502;2024-01-15T12:57:03;100297.19;;;2.56;100.00
23867;BME280;12114;53.404;-1.502;2024-01-15T12:59:48;100292.25;;;2.58;100.00
23867;BME280;12114;53.404;-1.502;2024-01-15T13:02:34;100296.28;;;2.61;100.00
23867;BME280;12114;53.404;-1.502;2024-01-15T13:05:19;100307.69;;;2.54;100.00
23867;BME280;12114;53.404;-1.502;2024-01-15T13:08:04;100311.66;;;2.48;100.00
23867;BME280;12114;53.404;-1.502;2024-01-15T13:10:48;100288.28;;;2.51;100.00
23867;BME280;12114;53.404;-1.502;2024-01-15T13:13:32;100298.50;;;2.59;100.00
23867;BME280;12114;53.404;-1.502;2024-01-15T13:16:18;100295.56;;;2.55;100.00
23867;BME280;12114;53.404;-1.502;2024-01-15T13:19:04;100290.91;;;2.56;100.00
23867;BME280;12114;53.404;-1.502;2024-01-15T13:21:49;100300.63;;;2.62;100.00
23867;BME280;12114;53.404;-1.502;2024-01-15T13:24:35;100302.66;;;2.70;100.00
23867;BME280;12114;53.404;-1.502;2024-01-15T13:27:19;100305.13;;;2.58;100.00
23867;BME280;12114;53.404;-1.502;2024-01-15T13:30:04;100297.41;;;2.60;100.00
23867;BME280;12114;53.404;-1.502;2024-01-15T13:32:48;100298.50;;;2.59;100.00
23867;BME280;12114;53.404;-1.502;2024-01-15T13:35:32;100289.19;;;2.60;100.00
23867;BME280;12114;53.404;-1.502;2024-01-15T13:38:17;100287.34;;;2.55;100.00
23867;BME280;12114;53.404;-1.502;2024-01-15T13:41:02;100289.41;;;2.50;100.00
23867;BME280;12114;53.404;-1.502;2024-01-15T13:43:49;100293.78;;;2.51;100.00
23867;BME280;12114;53.404;-1.502;2024-01-15T13:46:33;100299.75;;;2.53;100.00
23867;BME280;12114;53.404;-1.502;2024-01-15T13:49:17;100289.91;;;2.52;100.00
23867;BME280;12114;53.404;-1.502;2024-01-15T13:52:01;100291.03;;;2.51;100.00
23867;BME280;12114;53.404;-1.502;2024-01-15T13:54:47;100300.69;;;2.48;100.00
23867;BME280;12114;53.404;-1.502;2024-01-15T13:57:31;100293.16;;;2.40;100.00
23867;BME280;12114;53.404;-1.502;2024-01-15T14:00:16;100289.41;;;2.50;100.00
23867;BME280;12114;53.404;-1.502;2024-01-15T14:03:02;100302.50;;;2.53;100.00
23867;BME280;12114;53.404;-1.502;2024-01-15T14:05:47;100305.28;;;2.39;100.00
23867;BME280;12114;53.404;-1.502;2024-01-15T14:08:31;100300.56;;;2.53;100.00
23867;BME280;12114;53.404;-1.502;2024-01-15T14:11:15;100298.63;;;2.54;100.00
23867;BME280;12114;53.404;-1.502;2024-01-15T14:13:59;100302.28;;;2.49;100.00
23867;BME280;12114;53.404;-1.502;2024-01-15T14:16:43;100293.66;;;2.56;100.00
23867;BME280;12114;53.404;-1.502;2024-01-15T14:19:27;100302.81;;;2.51;100.00
23867;BME280;12114;53.404;-1.502;2024-01-15T14:22:11;100302.50;;;2.53;100.00
23867;BME280;12114;53.404;-1.502;2024-01-15T14:24:55;100307.16;;;2.52;100.00
23867;BME280;12114;53.404;-1.502;2024-01-15T14:27:39;100307.78;;;2.49;100.00
23867;BME280;12114;53.404;-1.502;2024-01-15T14:30:23;100305.03;;;2.49;100.00